sensor_id;sensor_type;location;lat;lon;timestamp;temperature;humidity
20722;DHT22;10522;52.198;9.890;2023-06-26T00:01:29;19.20;99.90
20722;DHT22;10522;52.198;9.890;2023-06-26T00:03:55;19.10;99.90
20722;DHT22;10522;52.198;9.890;2023-06-26T00:06:21;19.10;99.90
20722;DHT22;10522;52.198;9.890;2023-06-26T00:08:50;19.10;99.90
20722;DHT22;10522;52.198;9.890;2023-06-26T00:11:15;19.00;99.90
20722;DHT22;10522;52.198;9.890;2023-06-26T00:13:41;19.00;99.90
20722;DHT22;10522;52.198;9.890;2023-06-26T00:16:07;18.90;99.90
20722;DHT22;10522;52.198;9.890;2023-06-26T00:18:33;18.90;99.90
20722;DHT22;10522;52.198;9.890;2023-06-26T00:20:58;18.90;99.90
20722;DHT22;10522;52.198;9.890;2023-06-26T00:23:24;18.90;99.90
20722;DHT22;10522;52.198;9.890;2023-06-26T00:25:49;18.90;99.90
20722;DHT22;10522;52.198;9.890;2023-06-26T00:28:15;18.90;99.90
20722;DHT22;10522;52.198;9.890;2023-06-26T00:30:40;19.00;99.90
20722;DHT22;10522;52.198;9.890;2023-06-26T00:33:06;19.10;99.90
20722;DHT22;10522;52.198;9.890;2023-06-26T00:35:31;19.20;99.90
20722;DHT22;10522;52.198;9.890;2023-06-26T00:37:57;19.20;99.90
20722;DHT22;10522;52.198;9.890;2023-06-26T00:40:23;19.20;99.90
20722;DHT22;10522;52.198;9.890;2023-06-26T00:42:49;19.20;99.90
20722;DHT22;10522;52.198;9.890;2023-06-26T00:45:14;19.40;99.90
20722;DHT22;10522;52.198;9.890;2023-06-26T00:47:40;19.40;99.90
20722;DHT22;10522;52.198;9.890;2023-06-26T00:50:06;19.60;99.90
20722;DHT22;10522;52.198;9.890;2023-06-26T00:52:32;19.80;99.90
20722;DHT22;10522;52.198;9.890;2023-06-26T00:54:58;20.00;99.90
20722;DHT22;10522;52.198;9.890;2023-06-26T00:57:24;20.10;99.90
20722;DHT22;10522;52.198;9.890;2023-06-26T00:59:50;20.00;99.90
20722;DHT22;10522;52.198;9.890;2023-06-26T01:02:15;19.90;99.90
20722;DHT22;10522;52.198;9.890;2023-06-26T01:04:49;19.80;99.90
20722;DHT22;10522;52.198;9.890;2023-06-26T01:07:16;19.60;99.90
20722;DHT22;10522;52.198;9.890;2023-06-26T01:09:46;19.60;99.90
20722;DHT22;10522;52.198;9.890;2023-06-26T01:12:12;19.40;99.90
20722;DHT22;10522;52.198;9.890;2023-06-26T01:14:38;19.50;99.90
20722;DHT22;10522;52.198;9.890;2023-06-26T01:17:04;19.40;99.90
20722;DHT22;10522;52.198;9.890;2023-06-26T01:19:30;19.30;99.90
20722;DHT22;10522;52.198;9.890;2023-06-26T01:24:44;19.10;99.90
20722;DHT22;10522;52.198;9.890;2023-06-26T01:27:18;19.20;99.90
20722;DHT22;10522;52.198;9.890;2023-06-26T01:29:47;19.10;99.90
20722;DHT22;10522;52.198;9.890;2023-06-26T01:32:13;19.20;99.90
20722;DHT22;10522;52.198;9.890;2023-06-26T01:34:38;19.00;99.90
20722;DHT22;10522;52.198;9.890;2023-06-26T01:37:04;19.00;99.90
20722;DHT22;10522;52.198;9.890;2023-06-26T01:39:30;18.90;99.90
20722;DHT22;10522;52.198;9.890;2023-06-26T01:41:55;18.90;99.90
20722;DHT22;10522;52.198;9.890;2023-06-26T01:47:02;18.80;99.90
20722;DHT22;10522;52.198;9.890;2023-06-26T01:49:51;18.80;99.90
20722;DHT22;10522;52.198;9.890;2023-06-26T01:52:26;18.70;99.90
20722;DHT22;10522;52.198;9.890;2023-06-26T01:55:14;18.80;99.90
20722;DHT22;10522;52.198;9.890;2023-06-26T01:57:42;18.60;99.90
20722;DHT22;10522;52.198;9.890;2023-06-26T02:00:09;18.60;99.90
20722;DHT22;10522;52.198;9.890;2023-06-26T02:02:36;18.60;99.90
20722;DHT22;10522;52.198;9.890;2023-06-26T02:05:02;18.80;99.90
20722;DHT22;10522;52.198;9.890;2023-06-26T02:07:28;18.70;99.90
20722;DHT22;10522;52.198;9.890;2023-06-26T02:09:54;18.80;99.90
20722;DHT22;10522;52.198;9.890;2023-06-26T02:12:19;18.90;99.90
20722;DHT22;10522;52.198;9.890;2023-06-26T02:14:45;19.00;99.90
20722;DHT22;10522;52.198;9.890;2023-06-26T02:17:11;18.90;99.90
20722;DHT22;10522;52.198;9.890;2023-06-26T02:19:36;18.90;99.90
20722;DHT22;10522;52.198;9.890;2023-06-26T02:22:02;18.80;99.90
20722;DHT22;10522;52.198;9.890;2023-06-26T02:24:27;18.60;99.90
20722;DHT22;10522;52.198;9.890;2023-06-26T02:26:56;18.50;99.90
20722;DHT22;10522;52.198;9.890;2023-06-26T02:29:22;18.40;99.90
20722;DHT22;10522;52.198;9.890;2023-06-26T02:31:48;18.40;99.90
20722;DHT22;10522;52.198;9.890;2023-06-26T02:34:14;18.30;99.90
20722;DHT22;10522;52.198;9.890;2023-06-26T02:36:39;18.20;99.90
20722;DHT22;10522;52.198;9.890;2023-06-26T02:39:05;18.30;99.90
20722;DHT22;10522;52.198;9.890;2023-06-26T02:41:31;18.30;99.90
20722;DHT22;10522;52.198;9.890;2023-06-26T02:43:56;18.60;99.90
20722;DHT22;10522;52.198;9.890;2023-06-26T02:46:22;18.70;99.90
20722;DHT22;10522;52.198;9.890;2023-06-26T02:48:48;18.90;99.90
20722;DHT22;10522;52.198;9.890;2023-06-26T02:51:13;19.00;99.90
20722;DHT22;10522;52.198;9.890;2023-06-26T02:53:39;19.10;99.90
20722;DHT22;10522;52.198;9.890;2023-06-26T02:56:04;19.30;99.90
20722;DHT22;10522;52.198;9.890;2023-06-26T02:58:30;19.30;99.90
20722;DHT22;10522;52.198;9.890;2023-06-26T03:00:56;19.40;99.90
20722;DHT22;10522;52.198;9.890;2023-06-26T03:03:21;19.70;99.90
20722;DHT22;10522;52.198;9.890;2023-06-26T03:05:47;19.70;99.90
20722;DHT22;10522;52.198;9.890;2023-06-26T03:08:13;19.80;99.90
20722;DHT22;10522;52.198;9.890;2023-06-26T03:10:38;19.80;99.90
20722;DHT22;10522;52.198;9.890;2023-06-26T03:13:04;19.90;99.90
20722;DHT22;10522;52.198;9.890;2023-06-26T03:15:29;19.80;99.90
20722;DHT22;10522;52.198;9.890;2023-06-26T03:17:55;19.90;99.90
20722;DHT22;10522;52.198;9.890;2023-06-26T03:20:20;19.90;99.90
20722;DHT22;10522;52.198;9.890;2023-06-26T03:22:46;19.90;99.90
20722;DHT22;10522;52.198;9.890;2023-06-26T03:25:11;19.80;99.90
20722;DHT22;10522;52.198;9.890;2023-06-26T03:27:37;19.90;99.90
20722;DHT22;10522;52.198;9.890;2023-06-26T03:30:03;19.90;99.90
20722;DHT22;10522;52.198;9.890;2023-06-26T03:32:28;19.90;99.90
20722;DHT22;10522;52.198;9.890;2023-06-26T03:34:54;19.80;99.90
20722;DHT22;10522;52.198;9.890;2023-06-26T03:37:20;19.70;99.90
20722;DHT22;10522;52.198;9.890;2023-06-26T03:39:45;19.80;99.90
20722;DHT22;10522;52.198;9.890;2023-06-26T03:42:11;20.00;99.90
20722;DHT22;10522;52.198;9.890;2023-06-26T03:44:36;20.00;99.90
20722;DHT22;10522;52.198;9.890;2023-06-26T03:47:02;20.10;99.90
20722;DHT22;10522;52.198;9.890;2023-06-26T03:49:28;20.20;99.90
20722;DHT22;10522;52.198;9.890;2023-06-26T03:51:53;20.20;99.90
20722;DHT22;10522;52.198;9.890;2023-06-26T03:54:19;20.10;99.90
20722;DHT22;10522;52.198;9.890;2023-06-26T03:56:45;20.20;99.90
20722;DHT22;10522;52.198;9.890;2023-06-26T03:59:11;20.20;99.90
20722;DHT22;10522;52.198;9.890;2023-06-26T04:01:37;20.40;99.90
20722;DHT22;10522;52.198;9.890;2023-06-26T04:04:03;20.40;99.90
20722;DHT22;10522;52.198;9.890;2023-06-26T04:06:29;20.50;99.90
20722;DHT22;10522;52.198;9.890;2023-06-26T04:08:57;20.50;99.90
20722;DHT22;10522;52.198;9.890;2023-06-26T04:11:22;20.60;99.90
20722;DHT22;10522;52.198;9.890;2023-06-26T04:13:48;20.80;99.90
20722;DHT22;10522;52.198;9.890;2023-06-26T04:16:13;20.80;99.90
20722;DHT22;10522;52.198;9.890;2023-06-26T04:18:39;20.90;99.90
20722;DHT22;10522;52.198;9.890;2023-06-26T04:21:12;21.00;99.90
20722;DHT22;10522;52.198;9.890;2023-06-26T04:23:39;21.00;99.90
20722;DHT22;10522;52.198;9.890;2023-06-26T04:26:06;21.20;99.90
20722;DHT22;10522;52.198;9.890;2023-06-26T04:28:33;21.20;99.90
20722;DHT22;10522;52.198;9.890;2023-06-26T04:30:59;21.40;99.90
20722;DHT22;10522;52.198;9.890;2023-06-26T04:33:25;21.40;99.90
20722;DHT22;10522;52.198;9.890;2023-06-26T04:35:51;21.50;99.90
20722;DHT22;10522;52.198;9.890;2023-06-26T04:38:18;21.60;99.90
20722;DHT22;10522;52.198;9.890;2023-06-26T04:40:43;21.60;99.90
20722;DHT22;10522;52.198;9.890;2023-06-26T04:43:09;21.80;99.90
20722;DHT22;10522;52.198;9.890;2023-06-26T04:45:34;21.70;99.90
20722;DHT22;10522;52.198;9.890;2023-06-26T04:48:00;22.00;99.90
20722;DHT22;10522;52.198;9.890;2023-06-26T04:50:26;22.10;99.90
20722;DHT22;10522;52.198;9.890;2023-06-26T04:52:54;22.10;99.90
20722;DHT22;10522;52.198;9.890;2023-06-26T04:55:20;22.30;99.90
20722;DHT22;10522;52.198;9.890;2023-06-26T04:57:47;22.40;99.90
20722;DHT22;10522;52.198;9.890;2023-06-26T05:00:13;22.40;99.90
20722;DHT22;10522;52.198;9.890;2023-06-26T05:02:39;22.40;99.90
20722;DHT22;10522;52.198;9.890;2023-06-26T05:05:05;22.40;99.90
20722;DHT22;10522;52.198;9.890;2023-06-26T05:07:30;22.30;99.90
20722;DHT22;10522;52.198;9.890;2023-06-26T05:09:56;22.40;99.90
20722;DHT22;10522;52.198;9.890;2023-06-26T05:12:21;22.40;99.90
20722;DHT22;10522;52.198;9.890;2023-06-26T05:14:47;22.40;99.90
20722;DHT22;10522;52.198;9.890;2023-06-26T05:17:16;22.40;99.90
20722;DHT22;10522;52.198;9.890;2023-06-26T05:19:42;22.40;99.90
20722;DHT22;10522;52.198;9.890;2023-06-26T05:22:08;22.50;99.90
20722;DHT22;10522;52.198;9.890;2023-06-26T05:24:35;22.50;99.90
20722;DHT22;10522;52.198;9.890;2023-06-26T05:27:02;22.60;99.90
20722;DHT22;10522;52.198;9.890;2023-06-26T05:29:28;22.70;99.90
20722;DHT22;10522;52.198;9.890;2023-06-26T05:31:56;22.70;99.90
20722;DHT22;10522;52.198;9.890;2023-06-26T05:34:23;22.80;99.90
20722;DHT22;10522;52.198;9.890;2023-06-26T05:36:50;23.00;99.90
20722;DHT22;10522;52.198;9.890;2023-06-26T05:39:17;23.00;99.90
20722;DHT22;10522;52.198;9.890;2023-06-26T05:41:44;23.10;99.90
20722;DHT22;10522;52.198;9.890;2023-06-26T05:44:10;23.20;99.90
20722;DHT22;10522;52.198;9.890;2023-06-26T05:46:36;23.20;99.90
20722;DHT22;10522;52.198;9.890;2023-06-26T05:49:01;23.30;99.90
20722;DHT22;10522;52.198;9.890;2023-06-26T05:51:28;23.40;99.90
20722;DHT22;10522;52.198;9.890;2023-06-26T05:53:54;23.50;99.90
20722;DHT22;10522;52.198;9.890;2023-06-26T05:56:20;23.60;99.90
20722;DHT22;10522;52.198;9.890;2023-06-26T05:58:46;23.70;99.90
20722;DHT22;10522;52.198;9.890;2023-06-26T06:01:11;23.80;99.90
20722;DHT22;10522;52.198;9.890;2023-06-26T06:03:39;24.00;99.90
20722;DHT22;10522;52.198;9.890;2023-06-26T06:06:05;24.20;99.90
20722;DHT22;10522;52.198;9.890;2023-06-26T06:08:31;24.30;99.90
20722;DHT22;10522;52.198;9.890;2023-06-26T06:10:57;24.50;99.90
20722;DHT22;10522;52.198;9.890;2023-06-26T06:13:23;24.60;99.90
20722;DHT22;10522;52.198;9.890;2023-06-26T06:15:49;24.80;99.90
20722;DHT22;10522;52.198;9.890;2023-06-26T06:18:14;24.80;99.90
20722;DHT22;10522;52.198;9.890;2023-06-26T06:20:40;25.10;99.90
20722;DHT22;10522;52.198;9.890;2023-06-26T06:23:05;25.30;99.90
20722;DHT22;10522;52.198;9.890;2023-06-26T06:25:31;25.60;99.90
20722;DHT22;10522;52.198;9.890;2023-06-26T06:27:57;25.70;99.90
20722;DHT22;10522;52.198;9.890;2023-06-26T06:30:23;26.00;99.90
20722;DHT22;10522;52.198;9.890;2023-06-26T06:32:48;26.10;99.90
20722;DHT22;10522;52.198;9.890;2023-06-26T06:35:19;26.30;99.90
20722;DHT22;10522;52.198;9.890;2023-06-26T06:37:45;26.50;99.90
20722;DHT22;10522;52.198;9.890;2023-06-26T06:40:10;26.70;99.90
20722;DHT22;10522;52.198;9.890;2023-06-26T06:42:36;26.60;99.90
20722;DHT22;10522;52.198;9.890;2023-06-26T06:45:05;26.70;99.90
20722;DHT22;10522;52.198;9.890;2023-06-26T06:47:32;26.60;99.90
20722;DHT22;10522;52.198;9.890;2023-06-26T06:49:59;26.60;99.90
20722;DHT22;10522;52.198;9.890;2023-06-26T06:52:29;26.60;99.90
20722;DHT22;10522;52.198;9.890;2023-06-26T06:54:56;26.70;99.90
20722;DHT22;10522;52.198;9.890;2023-06-26T06:57:24;26.60;99.90
20722;DHT22;10522;52.198;9.890;2023-06-26T06:59:50;26.50;99.90
20722;DHT22;10522;52.198;9.890;2023-06-26T07:02:17;26.40;99.90
20722;DHT22;10522;52.198;9.890;2023-06-26T07:04:42;26.40;99.90
20722;DHT22;10522;52.198;9.890;2023-06-26T07:07:08;26.50;99.90
20722;DHT22;10522;52.198;9.890;2023-06-26T07:09:34;26.60;99.90
20722;DHT22;10522;52.198;9.890;2023-06-26T07:11:59;26.60;99.90
20722;DHT22;10522;52.198;9.890;2023-06-26T07:14:25;26.50;99.90
20722;DHT22;10522;52.198;9.890;2023-06-26T07:16:51;26.30;99.90
20722;DHT22;10522;52.198;9.890;2023-06-26T07:19:16;26.30;99.90
20722;DHT22;10522;52.198;9.890;2023-06-26T07:21:42;26.30;99.90
20722;DHT22;10522;52.198;9.890;2023-06-26T07:24:10;26.30;99.90
20722;DHT22;10522;52.198;9.890;2023-06-26T07:26:36;26.40;99.90
20722;DHT22;10522;52.198;9.890;2023-06-26T07:29:01;26.60;99.90
20722;DHT22;10522;52.198;9.890;2023-06-26T07:31:27;26.50;99.90
20722;DHT22;10522;52.198;9.890;2023-06-26T07:33:52;26.50;99.90
20722;DHT22;10522;52.198;9.890;2023-06-26T07:36:18;26.60;99.90
20722;DHT22;10522;52.198;9.890;2023-06-26T07:38:43;26.60;99.90
20722;DHT22;10522;52.198;9.890;2023-06-26T07:41:09;26.70;99.90
20722;DHT22;10522;52.198;9.890;2023-06-26T07:43:35;26.70;99.90
20722;DHT22;10522;52.198;9.890;2023-06-26T07:46:00;26.80;99.90
20722;DHT22;10522;52.198;9.890;2023-06-26T07:48:26;26.90;99.90
20722;DHT22;10522;52.198;9.890;2023-06-26T07:50:51;26.80;99.90
20722;DHT22;10522;52.198;9.890;2023-06-26T07:53:17;26.90;99.90
20722;DHT22;10522;52.198;9.890;2023-06-26T07:55:43;26.90;99.90
20722;DHT22;10522;52.198;9.890;2023-06-26T07:58:09;27.00;99.90
20722;DHT22;10522;52.198;9.890;2023-06-26T08:00:35;26.90;99.90
20722;DHT22;10522;52.198;9.890;2023-06-26T08:03:01;27.00;99.90
20722;DHT22;10522;52.198;9.890;2023-06-26T08:05:26;26.90;99.90
20722;DHT22;10522;52.198;9.890;2023-06-26T08:07:52;26.80;99.90
20722;DHT22;10522;52.198;9.890;2023-06-26T08:10:17;27.00;99.90
20722;DHT22;10522;52.198;9.890;2023-06-26T08:12:43;27.10;99.90
20722;DHT22;10522;52.198;9.890;2023-06-26T08:15:11;27.40;99.90
20722;DHT22;10522;52.198;9.890;2023-06-26T08:17:37;27.30;99.90
20722;DHT22;10522;52.198;9.890;2023-06-26T08:20:04;27.30;99.90
20722;DHT22;10522;52.198;9.890;2023-06-26T08:22:30;27.00;99.90
20722;DHT22;10522;52.198;9.890;2023-06-26T08:24:56;26.90;99.90
20722;DHT22;10522;52.198;9.890;2023-06-26T08:27:22;26.90;99.90
20722;DHT22;10522;52.198;9.890;2023-06-26T08:29:47;26.80;99.90
20722;DHT22;10522;52.198;9.890;2023-06-26T08:32:13;26.80;99.90
20722;DHT22;10522;52.198;9.890;2023-06-26T08:34:38;27.00;99.90
20722;DHT22;10522;52.198;9.890;2023-06-26T08:37:04;26.80;99.90
20722;DHT22;10522;52.198;9.890;2023-06-26T08:39:30;26.90;99.90
20722;DHT22;10522;52.198;9.890;2023-06-26T08:41:56;27.00;99.90
20722;DHT22;10522;52.198;9.890;2023-06-26T08:44:21;27.00;99.90
20722;DHT22;10522;52.198;9.890;2023-06-26T08:46:51;27.00;99.90
20722;DHT22;10522;52.198;9.890;2023-06-26T08:52:04;27.30;99.90
20722;DHT22;10522;52.198;9.890;2023-06-26T08:54:36;27.20;99.90
20722;DHT22;10522;52.198;9.890;2023-06-26T08:57:07;27.20;99.90
20722;DHT22;10522;52.198;9.890;2023-06-26T08:59:33;27.10;99.90
20722;DHT22;10522;52.198;9.890;2023-06-26T09:01:59;27.50;99.90
20722;DHT22;10522;52.198;9.890;2023-06-26T09:04:25;27.60;99.90
20722;DHT22;10522;52.198;9.890;2023-06-26T09:06:50;27.60;99.90
20722;DHT22;10522;52.198;9.890;2023-06-26T09:09:16;27.70;99.90
20722;DHT22;10522;52.198;9.890;2023-06-26T09:11:42;27.70;99.90
20722;DHT22;10522;52.198;9.890;2023-06-26T09:14:07;27.50;99.90
20722;DHT22;10522;52.198;9.890;2023-06-26T09:16:45;27.50;99.90
20722;DHT22;10522;52.198;9.890;2023-06-26T09:19:12;27.60;99.90
20722;DHT22;10522;52.198;9.890;2023-06-26T09:21:39;27.50;99.90
20722;DHT22;10522;52.198;9.890;2023-06-26T09:24:07;27.40;99.90
20722;DHT22;10522;52.198;9.890;2023-06-26T09:26:35;27.20;99.90
20722;DHT22;10522;52.198;9.890;2023-06-26T09:29:02;27.30;99.90
20722;DHT22;10522;52.198;9.890;2023-06-26T09:31:29;27.10;99.90
20722;DHT22;10522;52.198;9.890;2023-06-26T09:33:59;26.90;99.90
20722;DHT22;10522;52.198;9.890;2023-06-26T09:36:28;27.10;99.90
20722;DHT22;10522;52.198;9.890;2023-06-26T09:38:54;27.20;99.90
20722;DHT22;10522;52.198;9.890;2023-06-26T09:41:20;27.40;99.90
20722;DHT22;10522;52.198;9.890;2023-06-26T09:43:48;27.60;99.90
20722;DHT22;10522;52.198;9.890;2023-06-26T09:46:24;27.90;99.90
20722;DHT22;10522;52.198;9.890;2023-06-26T09:48:50;27.90;99.90
20722;DHT22;10522;52.198;9.890;2023-06-26T09:51:22;27.80;99.90
20722;DHT22;10522;52.198;9.890;2023-06-26T09:53:48;27.30;99.90
20722;DHT22;10522;52.198;9.890;2023-06-26T09:56:18;27.20;99.90
20722;DHT22;10522;52.198;9.890;2023-06-26T09:58:47;27.70;99.90
20722;DHT22;10522;52.198;9.890;2023-06-26T10:01:14;27.40;99.90
20722;DHT22;10522;52.198;9.890;2023-06-26T10:03:40;27.00;99.90
20722;DHT22;10522;52.198;9.890;2023-06-26T10:06:08;26.60;99.90
20722;DHT22;10522;52.198;9.890;2023-06-26T10:08:34;26.40;99.90
20722;DHT22;10522;52.198;9.890;2023-06-26T10:11:04;25.90;99.90
20722;DHT22;10522;52.198;9.890;2023-06-26T10:13:35;25.80;99.90
20722;DHT22;10522;52.198;9.890;2023-06-26T10:16:03;25.50;99.90
20722;DHT22;10522;52.198;9.890;2023-06-26T10:18:36;25.10;99.90
20722;DHT22;10522;52.198;9.890;2023-06-26T10:21:04;24.80;99.90
20722;DHT22;10522;52.198;9.890;2023-06-26T10:23:34;24.70;99.90
20722;DHT22;10522;52.198;9.890;2023-06-26T10:26:02;24.70;99.90
20722;DHT22;10522;52.198;9.890;2023-06-26T10:28:34;24.80;99.90
20722;DHT22;10522;52.198;9.890;2023-06-26T10:31:01;25.00;99.90
20722;DHT22;10522;52.198;9.890;2023-06-26T10:33:29;25.20;99.90
20722;DHT22;10522;52.198;9.890;2023-06-26T10:36:18;25.40;99.90
20722;DHT22;10522;52.198;9.890;2023-06-26T10:39:04;25.50;99.90
20722;DHT22;10522;52.198;9.890;2023-06-26T10:41:37;25.70;99.90
20722;DHT22;10522;52.198;9.890;2023-06-26T10:44:11;25.60;99.90
20722;DHT22;10522;52.198;9.890;2023-06-26T10:49:24;25.60;99.90
20722;DHT22;10522;52.198;9.890;2023-06-26T10:51:51;25.10;99.90
20722;DHT22;10522;52.198;9.890;2023-06-26T10:54:18;24.50;99.90
20722;DHT22;10522;52.198;9.890;2023-06-26T10:56:49;24.00;99.90
20722;DHT22;10522;52.198;9.890;2023-06-26T11:01:43;23.70;99.90
20722;DHT22;10522;52.198;9.890;2023-06-26T11:04:09;23.70;99.90
20722;DHT22;10522;52.198;9.890;2023-06-26T11:06:37;23.70;99.90
20722;DHT22;10522;52.198;9.890;2023-06-26T11:14:20;24.70;99.90
20722;DHT22;10522;52.198;9.890;2023-06-26T11:16:46;24.80;99.90
20722;DHT22;10522;52.198;9.890;2023-06-26T11:19:13;25.10;99.90
20722;DHT22;10522;52.198;9.890;2023-06-26T11:21:40;25.10;99.90
20722;DHT22;10522;52.198;9.890;2023-06-26T11:24:11;24.80;99.90
20722;DHT22;10522;52.198;9.890;2023-06-26T11:26:44;24.30;99.90
20722;DHT22;10522;52.198;9.890;2023-06-26T11:29:10;24.10;99.90
20722;DHT22;10522;52.198;9.890;2023-06-26T11:31:37;24.10;99.90
20722;DHT22;10522;52.198;9.890;2023-06-26T11:34:09;24.30;99.90
20722;DHT22;10522;52.198;9.890;2023-06-26T11:36:38;24.60;99.90
20722;DHT22;10522;52.198;9.890;2023-06-26T11:39:07;24.60;99.90
20722;DHT22;10522;52.198;9.890;2023-06-26T11:41:35;24.50;99.90
20722;DHT22;10522;52.198;9.890;2023-06-26T11:44:02;24.20;99.90
20722;DHT22;10522;52.198;9.890;2023-06-26T11:46:29;23.90;99.90
20722;DHT22;10522;52.198;9.890;2023-06-26T11:48:56;23.50;99.90
20722;DHT22;10522;52.198;9.890;2023-06-26T11:51:22;23.40;99.90
20722;DHT22;10522;52.198;9.890;2023-06-26T11:53:48;23.40;99.90
20722;DHT22;10522;52.198;9.890;2023-06-26T11:56:15;23.40;99.90
20722;DHT22;10522;52.198;9.890;2023-06-26T11:59:01;23.70;99.90
20722;DHT22;10522;52.198;9.890;2023-06-26T12:04:05;24.70;99.90
20722;DHT22;10522;52.198;9.890;2023-06-26T12:06:33;25.00;99.90
20722;DHT22;10522;52.198;9.890;2023-06-26T12:09:01;25.30;99.90
20722;DHT22;10522;52.198;9.890;2023-06-26T12:11:29;25.30;99.90
20722;DHT22;10522;52.198;9.890;2023-06-26T12:13:55;25.20;99.90
20722;DHT22;10522;52.198;9.890;2023-06-26T12:16:24;25.10;99.90
20722;DHT22;10522;52.198;9.890;2023-06-26T12:18:51;25.10;99.90
20722;DHT22;10522;52.198;9.890;2023-06-26T12:24:08;24.30;99.90
20722;DHT22;10522;52.198;9.890;2023-06-26T12:26:34;24.00;99.90
20722;DHT22;10522;52.198;9.890;2023-06-26T12:29:06;24.00;99.90
20722;DHT22;10522;52.198;9.890;2023-06-26T12:31:32;24.00;99.90
20722;DHT22;10522;52.198;9.890;2023-06-26T12:33:58;24.70;99.90
20722;DHT22;10522;52.198;9.890;2023-06-26T12:36:24;25.30;99.90
20722;DHT22;10522;52.198;9.890;2023-06-26T12:38:51;25.50;99.90
20722;DHT22;10522;52.198;9.890;2023-06-26T12:41:17;24.80;99.90
20722;DHT22;10522;52.198;9.890;2023-06-26T12:43:45;24.40;99.90
20722;DHT22;10522;52.198;9.890;2023-06-26T12:46:11;24.10;99.90
20722;DHT22;10522;52.198;9.890;2023-06-26T12:48:44;24.50;99.90
20722;DHT22;10522;52.198;9.890;2023-06-26T12:51:16;24.70;99.90
20722;DHT22;10522;52.198;9.890;2023-06-26T12:53:43;24.80;99.90
20722;DHT22;10522;52.198;9.890;2023-06-26T12:56:10;24.50;99.90
20722;DHT22;10522;52.198;9.890;2023-06-26T12:58:36;24.10;99.90
20722;DHT22;10522;52.198;9.890;2023-06-26T13:01:04;23.90;99.90
20722;DHT22;10522;52.198;9.890;2023-06-26T13:03:31;23.90;99.90
20722;DHT22;10522;52.198;9.890;2023-06-26T13:05:57;24.10;99.90
20722;DHT22;10522;52.198;9.890;2023-06-26T13:08:22;24.50;99.90
20722;DHT22;10522;52.198;9.890;2023-06-26T13:10:48;24.80;99.90
20722;DHT22;10522;52.198;9.890;2023-06-26T13:13:14;24.80;99.90
20722;DHT22;10522;52.198;9.890;2023-06-26T13:15:40;24.90;99.90
20722;DHT22;10522;52.198;9.890;2023-06-26T13:18:05;25.10;99.90
20722;DHT22;10522;52.198;9.890;2023-06-26T13:20:31;25.70;99.90
20722;DHT22;10522;52.198;9.890;2023-06-26T13:22:57;26.30;99.90
20722;DHT22;10522;52.198;9.890;2023-06-26T13:25:22;26.50;99.90
20722;DHT22;10522;52.198;9.890;2023-06-26T13:27:48;26.90;99.90
20722;DHT22;10522;52.198;9.890;2023-06-26T13:30:15;27.00;99.90
20722;DHT22;10522;52.198;9.890;2023-06-26T13:32:41;26.40;99.90
20722;DHT22;10522;52.198;9.890;2023-06-26T13:35:08;26.00;99.90
20722;DHT22;10522;52.198;9.890;2023-06-26T13:37:35;25.80;99.90
20722;DHT22;10522;52.198;9.890;2023-06-26T13:40:01;25.30;99.90
20722;DHT22;10522;52.198;9.890;2023-06-26T13:42:28;24.80;99.90
20722;DHT22;10522;52.198;9.890;2023-06-26T13:44:54;24.60;99.90
20722;DHT22;10522;52.198;9.890;2023-06-26T13:47:20;24.70;99.90
20722;DHT22;10522;52.198;9.890;2023-06-26T13:49:45;24.70;99.90
20722;DHT22;10522;52.198;9.890;2023-06-26T13:52:11;24.90;99.90
20722;DHT22;10522;52.198;9.890;2023-06-26T13:54:39;25.10;99.90
20722;DHT22;10522;52.198;9.890;2023-06-26T13:57:06;25.30;99.90
20722;DHT22;10522;52.198;9.890;2023-06-26T13:59:32;25.40;99.90
20722;DHT22;10522;52.198;9.890;2023-06-26T14:01:58;25.40;99.90
20722;DHT22;10522;52.198;9.890;2023-06-26T14:04:24;25.50;99.90
20722;DHT22;10522;52.198;9.890;2023-06-26T14:06:50;25.70;99.90
20722;DHT22;10522;52.198;9.890;2023-06-26T14:09:16;25.50;99.90
20722;DHT22;10522;52.198;9.890;2023-06-26T14:11:42;25.30;99.90
20722;DHT22;10522;52.198;9.890;2023-06-26T14:14:08;25.70;99.90
20722;DHT22;10522;52.198;9.890;2023-06-26T14:16:34;26.40;99.90
20722;DHT22;10522;52.198;9.890;2023-06-26T14:19:00;27.00;99.90
20722;DHT22;10522;52.198;9.890;2023-06-26T14:21:25;27.10;99.90
20722;DHT22;10522;52.198;9.890;2023-06-26T14:23:53;27.30;99.90
20722;DHT22;10522;52.198;9.890;2023-06-26T14:26:18;27.60;99.90
20722;DHT22;10522;52.198;9.890;2023-06-26T14:28:46;27.70;99.90
20722;DHT22;10522;52.198;9.890;2023-06-26T14:31:12;27.90;99.90
20722;DHT22;10522;52.198;9.890;2023-06-26T14:33:38;28.10;99.90
20722;DHT22;10522;52.198;9.890;2023-06-26T14:36:03;27.90;99.90
20722;DHT22;10522;52.198;9.890;2023-06-26T14:38:29;27.70;99.90
20722;DHT22;10522;52.198;9.890;2023-06-26T14:40:55;27.80;99.90
20722;DHT22;10522;52.198;9.890;2023-06-26T14:43:20;27.50;99.90
20722;DHT22;10522;52.198;9.890;2023-06-26T14:45:46;27.20;99.90
20722;DHT22;10522;52.198;9.890;2023-06-26T14:48:12;27.30;99.90
20722;DHT22;10522;52.198;9.890;2023-06-26T14:50:38;27.40;99.90
20722;DHT22;10522;52.198;9.890;2023-06-26T14:53:04;27.10;99.90
20722;DHT22;10522;52.198;9.890;2023-06-26T14:55:29;26.40;99.90
20722;DHT22;10522;52.198;9.890;2023-06-26T14:57:59;25.70;99.90
20722;DHT22;10522;52.198;9.890;2023-06-26T15:00:25;25.30;99.90
20722;DHT22;10522;52.198;9.890;2023-06-26T15:02:52;24.90;99.90
20722;DHT22;10522;52.198;9.890;2023-06-26T15:05:20;24.80;99.90
20722;DHT22;10522;52.198;9.890;2023-06-26T15:07:47;24.50;99.90
20722;DHT22;10522;52.198;9.890;2023-06-26T15:10:12;24.70;99.90
20722;DHT22;10522;52.198;9.890;2023-06-26T15:12:38;25.10;99.90
20722;DHT22;10522;52.198;9.890;2023-06-26T15:15:04;25.80;99.90
20722;DHT22;10522;52.198;9.890;2023-06-26T15:17:30;26.70;99.90
20722;DHT22;10522;52.198;9.890;2023-06-26T15:19:56;27.30;99.90
20722;DHT22;10522;52.198;9.890;2023-06-26T15:22:23;27.30;99.90
20722;DHT22;10522;52.198;9.890;2023-06-26T15:24:51;27.50;99.90
20722;DHT22;10522;52.198;9.890;2023-06-26T15:27:16;26.90;99.90
20722;DHT22;10522;52.198;9.890;2023-06-26T15:29:42;26.00;99.90
20722;DHT22;10522;52.198;9.890;2023-06-26T15:32:08;25.30;99.90
20722;DHT22;10522;52.198;9.890;2023-06-26T15:34:34;24.90;99.90
20722;DHT22;10522;52.198;9.890;2023-06-26T15:37:00;24.60;99.90
20722;DHT22;10522;52.198;9.890;2023-06-26T15:39:27;24.10;99.90
20722;DHT22;10522;52.198;9.890;2023-06-26T15:41:54;24.00;99.90
20722;DHT22;10522;52.198;9.890;2023-06-26T15:44:19;23.70;99.90
20722;DHT22;10522;52.198;9.890;2023-06-26T15:46:45;23.70;99.90
20722;DHT22;10522;52.198;9.890;2023-06-26T15:49:12;23.80;99.90
20722;DHT22;10522;52.198;9.890;2023-06-26T15:51:40;23.80;99.90